createdAt,value
2023-04-02T00:00:14.303Z,10.89
2023-04-02T00:03:03.902Z,10.82
2023-04-02T00:05:51.732Z,10.66
2023-04-02T00:08:23.435Z,10.58
2023-04-02T00:10:52.360Z,10.57
2023-04-02T00:13:23.868Z,10.62
2023-04-02T00:15:53.513Z,10.69
2023-04-02T00:18:23.144Z,10.78
2023-04-02T00:20:53.979Z,10.71
2023-04-02T00:23:23.884Z,10.73
2023-04-02T00:25:51.704Z,10.65
2023-04-02T00:28:21.697Z,10.59
2023-04-02T00:30:49.942Z,10.75
2023-04-02T00:33:19.693Z,10.69
2023-04-02T00:35:48.772Z,10.64
2023-04-02T00:38:21.492Z,10.64
2023-04-02T00:40:51.197Z,10.73
2023-04-02T00:43:21.034Z,10.52
2023-04-02T00:45:52.691Z,10.41
2023-04-02T00:48:28.581Z,10.48
2023-04-02T00:50:57.599Z,10.32
2023-04-02T00:53:26.653Z,10.32
2023-04-02T00:55:57.546Z,10.26
2023-04-02T00:58:28.219Z,10.24
2023-04-02T01:00:58.736Z,10.32
2023-04-02T01:03:38.851Z,10.31
2023-04-02T01:06:11.342Z,10.29
2023-04-02T01:08:45.326Z,10.28
2023-04-02T01:11:23.673Z,10.28
2023-04-02T01:13:54.751Z,10.45
2023-04-02T01:16:29.314Z,10.55
2023-04-02T01:19:02.236Z,10.40
2023-04-02T01:21:37.954Z,10.42
2023-04-02T01:24:07.252Z,10.52
2023-04-02T01:26:49.023Z,10.55
2023-04-02T01:29:21.508Z,10.63
2023-04-02T01:31:50.320Z,10.61
2023-04-02T01:34:19.806Z,10.60
2023-04-02T01:36:53.114Z,10.66
2023-04-02T01:39:30.826Z,10.79
2023-04-02T01:42:03.744Z,10.93
2023-04-02T01:44:36.076Z,10.97
2023-04-02T01:47:06.374Z,11.10
2023-04-02T01:49:34.093Z,11.10
2023-04-02T01:52:01.931Z,11.01
2023-04-02T01:54:33.191Z,10.73
2023-04-02T01:57:00.880Z,10.47
2023-04-02T01:59:29.489Z,10.48
2023-04-02T02:02:04.083Z,10.52
2023-04-02T02:04:34.929Z,10.42
2023-04-02T02:07:03.523Z,10.31
2023-04-02T02:09:33.910Z,10.24
2023-04-02T02:12:03.682Z,10.21
2023-04-02T02:14:31.853Z,10.20
2023-04-02T02:17:02.277Z,10.34
2023-04-02T02:19:34.314Z,10.20
2023-04-02T02:22:06.783Z,10.14
2023-04-02T02:24:35.901Z,10.43
2023-04-02T02:27:17.281Z,10.61
2023-04-02T02:29:45.720Z,10.77
2023-04-02T02:32:14.504Z,10.89
2023-04-02T02:34:47.549Z,10.60
2023-04-02T02:37:17.076Z,10.44
2023-04-02T02:39:47.192Z,10.42
2023-04-02T02:42:16.837Z,10.47
2023-04-02T02:44:47.412Z,10.28
2023-04-02T02:47:16.444Z,10.33
2023-04-02T02:49:47.068Z,10.50
2023-04-02T02:52:16.749Z,10.45
2023-04-02T02:54:52.917Z,10.42
2023-04-02T02:57:23.569Z,10.38
2023-04-02T02:59:52.213Z,10.31
2023-04-02T03:02:20.324Z,10.38
2023-04-02T03:04:53.186Z,10.35
2023-04-02T03:07:25.605Z,10.12
2023-04-02T03:09:59.716Z,10.39
2023-04-02T03:12:33.399Z,10.49
2023-04-02T03:15:04.185Z,10.51
2023-04-02T03:17:35.728Z,10.51
2023-04-02T03:20:10.643Z,10.64
2023-04-02T03:22:39.755Z,10.71
2023-04-02T03:25:17.799Z,10.59
2023-04-02T03:27:48.230Z,10.53
2023-04-02T03:30:26.301Z,10.57
2023-04-02T03:32:56.415Z,10.57
2023-04-02T03:35:29.729Z,10.50
2023-04-02T03:38:01.707Z,10.41
2023-04-02T03:40:32.360Z,10.45
2023-04-02T03:43:02.652Z,10.52
2023-04-02T03:45:34.921Z,10.61
2023-04-02T03:48:06.262Z,10.62
2023-04-02T03:50:39.123Z,10.63
2023-04-02T03:53:07.133Z,10.65
2023-04-02T03:55:38.080Z,10.66
2023-04-02T03:58:11.108Z,10.55
2023-04-02T04:00:41.652Z,10.46
2023-04-02T04:03:13.201Z,10.63
2023-04-02T04:05:48.631Z,10.86
2023-04-02T04:08:18.731Z,10.82
2023-04-02T04:10:47.635Z,10.78
2023-04-02T04:13:19.913Z,10.79
2023-04-02T04:15:52.856Z,10.82
2023-04-02T04:18:32.128Z,10.78
2023-04-02T04:21:03.155Z,10.88
2023-04-02T04:23:41.259Z,10.82
2023-04-02T04:26:19.906Z,10.80
2023-04-02T04:28:59.911Z,10.61
2023-04-02T04:31:34.385Z,10.68
2023-04-02T04:34:09.232Z,10.70
2023-04-02T04:36:54.353Z,10.71
2023-04-02T04:39:31.836Z,10.69
2023-04-02T04:42:02.268Z,10.78
2023-04-02T04:44:37.716Z,10.81
2023-04-02T04:47:09.380Z,10.80
2023-04-02T04:49:40.204Z,10.83
2023-04-02T04:52:13.302Z,10.92
2023-04-02T04:54:42.531Z,10.92
2023-04-02T04:57:22.881Z,10.68
2023-04-02T04:59:53.985Z,10.83
2023-04-02T05:02:25.470Z,11.02
2023-04-02T05:04:56.318Z,10.94
2023-04-02T05:07:29.124Z,10.84
2023-04-02T05:09:59.628Z,10.86
2023-04-02T05:12:34.852Z,10.87
2023-04-02T05:15:09.749Z,10.87
2023-04-02T05:17:42.118Z,10.75
2023-04-02T05:20:16.464Z,10.88
2023-04-02T05:22:52.648Z,10.96
2023-04-02T05:25:23.357Z,11.05
2023-04-02T05:27:55.659Z,10.98
2023-04-02T05:30:49.439Z,11.00
2023-04-02T05:33:25.798Z,10.94
2023-04-02T05:36:00.561Z,10.93
2023-04-02T05:38:33.515Z,11.28
2023-04-02T05:41:03.395Z,11.36
2023-04-02T05:43:33.984Z,11.34
2023-04-02T05:46:09.280Z,11.57
2023-04-02T05:48:39.108Z,11.62
2023-04-02T05:51:10.256Z,11.79
2023-04-02T05:53:42.428Z,12.02
2023-04-02T05:56:14.340Z,12.12
2023-04-02T05:58:45.734Z,12.31
2023-04-02T06:01:45.266Z,12.53
2023-04-02T06:04:32.976Z,12.58
2023-04-02T06:07:06.318Z,12.74
2023-04-02T06:09:42.922Z,12.72
2023-04-02T06:12:17.097Z,12.77
2023-04-02T06:14:46.030Z,12.86
2023-04-02T06:17:17.492Z,13.12
2023-04-02T06:19:46.808Z,13.20
2023-04-02T06:22:24.420Z,13.26
2023-04-02T06:25:01.593Z,13.12
2023-04-02T06:27:32.306Z,13.20
2023-04-02T06:30:03.150Z,13.41
2023-04-02T06:32:32.816Z,13.51
2023-04-02T06:35:01.367Z,13.63
2023-04-02T06:37:34.659Z,13.72
2023-04-02T06:40:25.881Z,13.81
2023-04-02T06:43:00.016Z,13.82
2023-04-02T06:46:12.234Z,13.88
2023-04-02T06:49:00.279Z,14.03
2023-04-02T06:51:29.009Z,14.16
2023-04-02T06:53:57.041Z,13.89
2023-04-02T06:56:34.452Z,13.53
2023-04-02T06:59:04.414Z,13.78
2023-04-02T07:01:35.119Z,14.29
2023-04-02T07:04:03.028Z,13.48
2023-04-02T07:06:39.265Z,13.50
2023-04-02T07:09:07.696Z,13.88
2023-04-02T07:11:40.565Z,14.15
2023-04-02T07:14:10.832Z,12.71
2023-04-02T07:16:38.692Z,13.41
2023-04-02T07:19:07.083Z,13.32
2023-04-02T07:21:38.235Z,12.52
2023-04-02T07:24:07.152Z,12.30
2023-04-02T07:26:34.744Z,12.35
2023-04-02T07:29:03.940Z,12.61
2023-04-02T07:31:31.939Z,11.52
2023-04-02T07:34:00.753Z,10.29
2023-04-02T07:36:29.694Z,9.42
2023-04-02T07:38:57.443Z,9.03
2023-04-02T07:41:26.319Z,8.56
2023-04-02T07:43:54.634Z,8.48
2023-04-02T07:46:24.603Z,8.36
2023-04-02T07:48:52.399Z,8.31
2023-04-02T07:51:20.967Z,8.37
2023-04-02T07:53:56.348Z,8.37
2023-04-02T07:56:25.904Z,8.21
2023-04-02T07:58:53.539Z,8.16
2023-04-02T08:01:25.862Z,8.13
2023-04-02T08:03:54.821Z,8.09
2023-04-02T08:06:22.660Z,8.16
2023-04-02T08:08:50.524Z,8.14
2023-04-02T08:11:18.482Z,8.11
2023-04-02T08:13:45.946Z,8.03
2023-04-02T08:16:13.906Z,8.27
2023-04-02T08:18:42.972Z,8.15
2023-04-02T08:21:11.732Z,8.55
2023-04-02T08:23:39.519Z,8.59
2023-04-02T08:26:07.845Z,8.34
2023-04-02T08:28:35.584Z,7.84
2023-04-02T08:31:04.975Z,8.17
2023-04-02T08:33:34.259Z,8.48
2023-04-02T08:36:03.429Z,8.51
2023-04-02T08:38:31.441Z,8.12
2023-04-02T08:41:00.866Z,7.72
2023-04-02T08:43:38.791Z,7.71
2023-04-02T08:46:10.950Z,7.80
2023-04-02T08:48:42.477Z,7.74
2023-04-02T08:51:20.977Z,7.87
2023-04-02T08:53:48.699Z,8.27
2023-04-02T08:56:19.953Z,8.30
2023-04-02T08:58:49.498Z,8.53
2023-04-02T09:01:21.932Z,8.23
2023-04-02T09:03:51.443Z,7.92
2023-04-02T09:06:21.641Z,7.79
2023-04-02T09:08:51.935Z,8.01
2023-04-02T09:11:23.544Z,7.91
2023-04-02T09:13:53.918Z,8.45
2023-04-02T09:16:25.719Z,8.20
2023-04-02T09:18:55.189Z,8.02
2023-04-02T09:21:31.863Z,8.08
2023-04-02T09:23:59.633Z,7.85
2023-04-02T09:26:28.911Z,8.28
2023-04-02T09:29:02.093Z,8.04
2023-04-02T09:31:32.762Z,8.32
2023-04-02T09:34:01.452Z,8.21
2023-04-02T09:36:38.610Z,7.93
2023-04-02T09:39:08.619Z,7.99
2023-04-02T09:41:37.514Z,7.87
2023-04-02T09:44:21.629Z,7.70
2023-04-02T09:46:54.460Z,7.70
2023-04-02T09:49:24.771Z,7.43
2023-04-02T09:52:17.663Z,7.62
2023-04-02T09:54:46.368Z,7.68
2023-04-02T09:57:24.241Z,7.77
2023-04-02T10:00:14.663Z,7.60
2023-04-02T10:03:01.164Z,7.68
2023-04-02T10:05:39.816Z,7.71
2023-04-02T10:08:18.335Z,7.92
2023-04-02T10:10:49.178Z,8.23
2023-04-02T10:13:21.122Z,8.25
2023-04-02T10:15:52.415Z,8.41
2023-04-02T10:18:23.976Z,8.18
2023-04-02T10:20:53.980Z,8.30
2023-04-02T10:23:26.160Z,8.46
2023-04-02T10:25:59.174Z,8.13
2023-04-02T10:28:34.838Z,8.10
2023-04-02T10:31:07.248Z,8.25
2023-04-02T10:33:39.744Z,8.49
2023-04-02T10:36:10.769Z,8.46
2023-04-02T10:38:44.469Z,8.89
2023-04-02T10:41:22.642Z,8.88
2023-04-02T10:44:16.714Z,8.38
2023-04-02T10:46:54.008Z,8.79
2023-04-02T10:49:29.624Z,9.43
2023-04-02T10:52:01.227Z,9.98
2023-04-02T10:54:35.444Z,9.79
2023-04-02T10:57:08.200Z,9.06
2023-04-02T10:59:40.109Z,8.61
2023-04-02T11:02:18.909Z,8.61
2023-04-02T11:04:47.313Z,8.89
2023-04-02T11:07:18.229Z,8.36
2023-04-02T11:09:50.297Z,9.00
2023-04-02T11:12:22.775Z,9.26
2023-04-02T11:14:51.679Z,9.56
2023-04-02T11:17:21.995Z,9.74
2023-04-02T11:19:50.304Z,9.26
2023-04-02T11:22:19.392Z,9.08
2023-04-02T11:24:50.124Z,9.46
2023-04-02T11:27:27.112Z,9.14
2023-04-02T11:30:00.577Z,9.30
2023-04-02T11:32:40.515Z,9.61
2023-04-02T11:35:27.656Z,9.41
2023-04-02T11:37:56.525Z,9.28
2023-04-02T11:40:46.839Z,9.02
2023-04-02T11:43:32.999Z,9.62
2023-04-02T11:46:01.899Z,9.77
2023-04-02T11:48:31.666Z,9.70
2023-04-02T11:50:59.623Z,9.30
2023-04-02T11:53:30.338Z,9.27
2023-04-02T11:56:10.046Z,8.99
2023-04-02T11:58:49.734Z,8.71
2023-04-02T12:01:29.732Z,8.53
2023-04-02T12:04:11.588Z,8.57
2023-04-02T12:06:49.284Z,8.59
2023-04-02T12:09:20.318Z,8.10
2023-04-02T12:11:51.041Z,8.55
2023-04-02T12:14:45.541Z,8.79
2023-04-02T12:17:18.670Z,8.81
2023-04-02T12:19:48.350Z,9.13
2023-04-02T12:22:20.313Z,8.99
2023-04-02T12:24:49.030Z,8.73
2023-04-02T12:27:22.618Z,9.07
2023-04-02T12:29:51.245Z,8.69
2023-04-02T12:32:25.612Z,8.70
2023-04-02T12:34:54.806Z,8.76
2023-04-02T12:37:24.277Z,8.54
2023-04-02T12:39:56.372Z,8.49
2023-04-02T12:42:29.408Z,9.00
2023-04-02T12:44:57.316Z,8.81
2023-04-02T12:47:25.973Z,8.23
2023-04-02T12:49:54.732Z,8.44
2023-04-02T12:52:23.532Z,8.30
2023-04-02T12:54:52.986Z,8.50
2023-04-02T12:57:22.133Z,8.15
2023-04-02T12:59:51.241Z,8.30
2023-04-02T13:02:20.439Z,7.97
2023-04-02T13:04:49.933Z,8.09
2023-04-02T13:07:19.073Z,8.12
2023-04-02T13:09:47.992Z,7.98
2023-04-02T13:12:26.408Z,7.97
2023-04-02T13:14:57.536Z,7.98
2023-04-02T13:17:42.253Z,7.76
2023-04-02T13:20:29.278Z,8.27
2023-04-02T13:22:57.134Z,8.20
2023-04-02T13:25:28.551Z,8.18
2023-04-02T13:27:56.600Z,8.35
2023-04-02T13:30:27.078Z,8.28
2023-04-02T13:32:55.653Z,7.92
2023-04-02T13:35:23.626Z,7.61
2023-04-02T13:37:51.586Z,7.86
2023-04-02T13:40:20.525Z,7.84
2023-04-02T13:42:50.189Z,7.48
2023-04-02T13:45:22.437Z,7.79
2023-04-02T13:47:51.784Z,7.90
2023-04-02T13:50:21.011Z,7.76
2023-04-02T13:52:49.887Z,7.57
2023-04-02T13:55:19.139Z,7.71
2023-04-02T13:57:47.238Z,7.62
2023-04-02T14:00:16.222Z,7.39
2023-04-02T14:02:46.429Z,7.34
2023-04-02T14:05:33.346Z,7.41
2023-04-02T14:08:07.253Z,7.60
2023-04-02T14:10:41.020Z,7.39
2023-04-02T14:13:14.281Z,7.26
2023-04-02T14:15:52.630Z,7.16
2023-04-02T14:18:28.218Z,7.36
2023-04-02T14:21:03.689Z,7.55
2023-04-02T14:23:37.616Z,7.48
2023-04-02T14:26:11.809Z,7.60
2023-04-02T14:28:47.206Z,7.59
2023-04-02T14:31:22.485Z,7.60
2023-04-02T14:33:56.748Z,7.47
2023-04-02T14:36:29.751Z,7.49
2023-04-02T14:39:03.468Z,7.33
2023-04-02T14:41:36.324Z,7.20
2023-04-02T14:44:05.945Z,7.10
2023-04-02T14:46:36.171Z,7.08
2023-04-02T14:49:08.131Z,7.27
2023-04-02T14:51:38.471Z,7.03
2023-04-02T14:54:10.705Z,7.28
2023-04-02T14:56:40.846Z,7.01
2023-04-02T14:59:22.403Z,6.79
2023-04-02T15:01:51.275Z,7.01
2023-04-02T15:04:21.483Z,7.09
2023-04-02T15:06:52.650Z,7.03
2023-04-02T15:09:23.723Z,6.91
2023-04-02T15:11:52.702Z,6.83
2023-04-02T15:14:22.518Z,7.01
2023-04-02T15:16:50.510Z,6.88
2023-04-02T15:19:19.504Z,7.16
2023-04-02T15:22:08.823Z,6.91
2023-04-02T15:24:41.073Z,6.80
2023-04-02T15:27:24.348Z,7.01
2023-04-02T15:29:57.861Z,7.04
2023-04-02T15:32:31.149Z,7.00
2023-04-02T15:35:03.482Z,6.90
2023-04-02T15:37:35.308Z,6.49
2023-04-02T15:40:18.225Z,6.57
2023-04-02T15:42:49.215Z,6.44
2023-04-02T15:45:28.977Z,6.37
2023-04-02T15:48:01.633Z,6.22
2023-04-02T15:50:38.144Z,6.21
2023-04-02T15:53:11.283Z,6.24
2023-04-02T15:55:42.069Z,6.18
2023-04-02T15:58:17.413Z,6.19
2023-04-02T16:00:50.748Z,6.19
2023-04-02T16:03:39.503Z,6.10
2023-04-02T16:06:26.214Z,6.28
2023-04-02T16:09:16.360Z,6.35
2023-04-02T16:11:44.249Z,6.47
2023-04-02T16:14:18.141Z,6.39
2023-04-02T16:16:47.262Z,6.27
2023-04-02T16:19:18.691Z,6.31
2023-04-02T16:21:49.091Z,6.22
2023-04-02T16:24:18.449Z,6.10
2023-04-02T16:26:52.448Z,6.39
2023-04-02T16:29:51.039Z,6.12
2023-04-02T16:32:30.931Z,6.17
2023-04-02T16:35:24.796Z,6.21
2023-04-02T16:37:56.310Z,6.23
2023-04-02T16:40:31.814Z,6.28
2023-04-02T16:43:04.973Z,6.10
2023-04-02T16:45:37.964Z,6.13
2023-04-02T16:48:11.848Z,6.09
2023-04-02T16:50:47.911Z,6.15
2023-04-02T16:53:23.151Z,6.35
2023-04-02T16:56:02.821Z,6.19
2023-04-02T16:58:38.778Z,6.25
2023-04-02T17:01:12.824Z,6.13
2023-04-02T17:03:56.292Z,6.21
2023-04-02T17:06:29.266Z,6.24
2023-04-02T17:08:59.792Z,6.13
2023-04-02T17:11:34.010Z,6.08
2023-04-02T17:14:06.487Z,6.01
2023-04-02T17:16:38.319Z,6.10
2023-04-02T17:19:09.494Z,6.29
2023-04-02T17:21:38.476Z,6.13
2023-04-02T17:24:14.168Z,6.01
2023-04-02T17:26:46.637Z,6.09
2023-04-02T17:29:18.715Z,5.91
2023-04-02T17:31:49.498Z,6.00
2023-04-02T17:34:18.596Z,6.04
2023-04-02T17:36:51.592Z,5.87
2023-04-02T17:39:21.475Z,5.98
2023-04-02T17:41:53.079Z,5.96
2023-04-02T17:44:37.206Z,5.90
2023-04-02T17:47:10.398Z,5.82
2023-04-02T17:49:42.079Z,5.82
2023-04-02T17:52:14.674Z,5.80
2023-04-02T17:54:49.075Z,5.85
2023-04-02T17:57:26.024Z,5.85
2023-04-02T18:00:01.601Z,5.88
2023-04-02T18:02:58.361Z,5.68
2023-04-02T18:05:33.106Z,5.66
2023-04-02T18:08:06.963Z,5.74
2023-04-02T18:10:39.778Z,5.67
2023-04-02T18:13:16.912Z,5.72
2023-04-02T18:16:00.034Z,5.77
2023-04-02T18:18:42.877Z,5.76
2023-04-02T18:21:17.311Z,5.76
2023-04-02T18:23:54.001Z,5.67
2023-04-02T18:26:29.449Z,5.61
2023-04-02T18:29:06.403Z,5.72
2023-04-02T18:31:41.217Z,5.59
2023-04-02T18:34:20.938Z,5.64
2023-04-02T18:36:55.661Z,5.55
2023-04-02T18:39:31.821Z,5.41
2023-04-02T18:42:03.187Z,5.32
2023-04-02T18:44:40.376Z,5.26
2023-04-02T18:47:13.195Z,5.24
2023-04-02T18:49:44.486Z,5.35
2023-04-02T18:52:13.723Z,5.36
2023-04-02T18:54:44.253Z,5.48
2023-04-02T18:57:15.822Z,5.51
2023-04-02T18:59:48.763Z,5.50
2023-04-02T19:02:31.582Z,5.47
2023-04-02T19:05:02.066Z,5.47
2023-04-02T19:07:31.519Z,5.61
2023-04-02T19:10:03.837Z,5.56
2023-04-02T19:12:33.990Z,5.51
2023-04-02T19:15:15.934Z,5.55
2023-04-02T19:17:46.935Z,5.51
2023-04-02T19:20:22.008Z,5.46
2023-04-02T19:22:57.969Z,5.49
2023-04-02T19:25:38.964Z,5.47
2023-04-02T19:28:09.159Z,5.50
2023-04-02T19:30:43.581Z,5.53
2023-04-02T19:33:16.641Z,5.65
2023-04-02T19:35:48.139Z,5.63
2023-04-02T19:38:21.673Z,5.78
2023-04-02T19:40:54.530Z,5.96
2023-04-02T19:43:22.450Z,5.93
2023-04-02T19:45:54.798Z,5.72
2023-04-02T19:48:24.054Z,5.82
2023-04-02T19:50:51.854Z,5.99
2023-04-02T19:53:20.418Z,6.17
2023-04-02T19:55:48.739Z,6.12
2023-04-02T19:58:23.442Z,5.98
2023-04-02T20:00:51.613Z,5.82
2023-04-02T20:03:21.400Z,5.80
2023-04-02T20:05:50.213Z,5.79
2023-04-02T20:08:18.645Z,5.83
2023-04-02T20:10:48.910Z,5.97
2023-04-02T20:13:17.106Z,6.05
2023-04-02T20:15:47.353Z,6.00
2023-04-02T20:18:15.615Z,5.99
2023-04-02T20:20:46.253Z,5.92
2023-04-02T20:23:14.002Z,5.93
2023-04-02T20:25:45.687Z,6.13
2023-04-02T20:28:14.222Z,6.09
2023-04-02T20:30:42.531Z,6.05
2023-04-02T20:33:10.586Z,6.10
2023-04-02T20:35:38.446Z,6.19
2023-04-02T20:38:08.398Z,6.27
2023-04-02T20:40:36.586Z,6.11
2023-04-02T20:43:04.936Z,6.03
2023-04-02T20:45:33.098Z,6.14
2023-04-02T20:48:01.147Z,6.12
2023-04-02T20:50:29.518Z,6.08
2023-04-02T20:52:59.575Z,6.21
2023-04-02T20:55:29.129Z,6.06
2023-04-02T20:57:57.824Z,6.16
2023-04-02T21:00:25.624Z,6.00
2023-04-02T21:02:53.336Z,6.00
2023-04-02T21:05:21.289Z,6.00
2023-04-02T21:07:52.512Z,5.92
2023-04-02T21:10:21.385Z,5.94
2023-04-02T21:12:50.884Z,6.03
2023-04-02T21:15:19.438Z,6.13
2023-04-02T21:17:47.368Z,6.06
2023-04-02T21:20:15.345Z,6.14
2023-04-02T21:22:43.705Z,6.06
2023-04-02T21:25:11.986Z,5.90
2023-04-02T21:27:40.404Z,5.77
2023-04-02T21:30:11.803Z,5.57
2023-04-02T21:32:39.745Z,5.48
2023-04-02T21:35:09.342Z,5.57
2023-04-02T21:37:37.356Z,5.60
2023-04-02T21:40:06.014Z,5.57
2023-04-02T21:42:34.246Z,5.59
2023-04-02T21:45:03.420Z,5.59
2023-04-02T21:47:33.068Z,5.78
2023-04-02T21:50:01.309Z,5.59
2023-04-02T21:52:29.441Z,5.44
2023-04-02T21:54:57.611Z,5.43
2023-04-02T21:57:26.063Z,5.55
2023-04-02T21:59:57.164Z,5.46
2023-04-02T22:02:25.658Z,5.55
2023-04-02T22:04:55.222Z,5.48
2023-04-02T22:07:23.143Z,5.27
2023-04-02T22:09:51.303Z,5.11
2023-04-02T22:12:19.269Z,5.08
2023-04-02T22:14:47.351Z,5.06
2023-04-02T22:17:15.297Z,5.11
2023-04-02T22:19:42.928Z,5.00
2023-04-02T22:22:12.248Z,4.97
2023-04-02T22:24:39.992Z,5.02
2023-04-02T22:27:07.720Z,5.21
2023-04-02T22:29:35.502Z,5.18
2023-04-02T22:32:03.823Z,5.13
2023-04-02T22:34:31.997Z,5.30
2023-04-02T22:37:01.929Z,5.32
2023-04-02T22:39:31.691Z,5.22
2023-04-02T22:42:00.169Z,5.20
2023-04-02T22:44:27.964Z,5.32
2023-04-02T22:46:55.938Z,5.34
2023-04-02T22:49:23.738Z,5.56
2023-04-02T22:51:51.678Z,5.43
2023-04-02T22:54:19.587Z,5.81
2023-04-02T22:56:49.079Z,5.70
2023-04-02T22:59:17.358Z,5.38
2023-04-02T23:01:46.085Z,5.20
2023-04-02T23:04:14.707Z,5.40
2023-04-02T23:06:42.808Z,5.43
2023-04-02T23:09:11.449Z,5.50
2023-04-02T23:11:39.839Z,5.40
2023-04-02T23:14:09.258Z,5.15
2023-04-02T23:16:38.305Z,5.03
2023-04-02T23:19:08.844Z,5.26
2023-04-02T23:21:37.232Z,5.28
2023-04-02T23:24:05.249Z,5.20
2023-04-02T23:26:33.087Z,5.18
2023-04-02T23:29:02.056Z,5.18
2023-04-02T23:31:31.571Z,4.93
2023-04-02T23:34:00.537Z,4.85
2023-04-02T23:36:31.992Z,5.09
2023-04-02T23:39:01.764Z,4.86
2023-04-02T23:41:30.177Z,4.79
2023-04-02T23:43:59.268Z,4.80
2023-04-02T23:46:27.515Z,4.78
2023-04-02T23:48:57.611Z,4.83
2023-04-02T23:51:26.376Z,4.80
2023-04-02T23:53:55.424Z,5.10
2023-04-02T23:56:23.834Z,5.19
2023-04-02T23:58:52.108Z,5.00
